createdAt,value
2022-09-25T00:00:14.846Z,75.23
2022-09-25T00:05:17.592Z,75.62
2022-09-25T00:10:20.366Z,75.63
2022-09-25T00:15:23.172Z,75.88
2022-09-25T00:20:26.125Z,76.05
2022-09-25T00:25:28.785Z,76.24
2022-09-25T00:30:31.415Z,76.21
2022-09-25T00:35:34.112Z,76.04
2022-09-25T00:40:36.814Z,76.23
2022-09-25T00:45:42.019Z,76.21
2022-09-25T00:50:56.607Z,76.46
2022-09-25T00:56:01.554Z,76.47
2022-09-25T01:01:04.477Z,76.77
2022-09-25T01:06:07.322Z,76.81
2022-09-25T01:11:10.477Z,77.17
2022-09-25T01:16:17.220Z,77.40
2022-09-25T01:21:31.794Z,77.45
2022-09-25T01:26:55.767Z,77.53
2022-09-25T01:32:04.411Z,77.76
2022-09-25T01:37:14.466Z,77.76
2022-09-25T01:42:21.570Z,77.94
2022-09-25T01:47:28.108Z,77.94
2022-09-25T01:52:35.805Z,78.03
2022-09-25T01:57:42.518Z,78.33
2022-09-25T02:02:56.632Z,78.34
2022-09-25T02:08:03.786Z,78.28
2022-09-25T02:13:13.317Z,78.50
2022-09-25T02:18:37.444Z,78.61
2022-09-25T02:23:52.544Z,78.54
2022-09-25T02:28:56.175Z,78.76
2022-09-25T02:33:58.809Z,78.81
2022-09-25T02:39:03.338Z,78.79
2022-09-25T02:44:14.334Z,79.05
2022-09-25T02:49:44.219Z,78.80
2022-09-25T02:55:02.978Z,78.36
2022-09-25T03:00:07.733Z,79.08
2022-09-25T03:05:12.528Z,78.86
2022-09-25T03:10:16.442Z,78.94
2022-09-25T03:15:20.074Z,79.08
2022-09-25T03:20:22.667Z,78.94
2022-09-25T03:25:25.384Z,79.03
2022-09-25T03:30:29.423Z,79.51
2022-09-25T03:35:32.181Z,79.86
2022-09-25T03:40:36.610Z,80.28
2022-09-25T03:45:39.328Z,80.33
2022-09-25T03:50:42.155Z,80.48
2022-09-25T03:55:48.758Z,80.51
2022-09-25T04:00:51.455Z,80.58
2022-09-25T04:05:59.042Z,80.87
2022-09-25T04:11:02.269Z,81.16
2022-09-25T04:16:06.905Z,81.25
2022-09-25T04:21:11.230Z,81.30
2022-09-25T04:26:13.902Z,81.50
2022-09-25T04:31:16.532Z,81.73
2022-09-25T04:36:19.316Z,81.93
2022-09-25T04:41:22.314Z,82.03
2022-09-25T04:46:24.928Z,82.15
2022-09-25T04:51:27.537Z,82.36
2022-09-25T04:56:30.065Z,82.48
2022-09-25T05:01:32.896Z,82.78
2022-09-25T05:06:35.648Z,82.65
2022-09-25T05:11:38.232Z,82.81
2022-09-25T05:16:40.993Z,82.92
2022-09-25T05:21:43.796Z,83.20
2022-09-25T05:26:48.304Z,83.50
2022-09-25T05:31:51.019Z,83.71
2022-09-25T05:36:53.832Z,83.84
2022-09-25T05:41:57.448Z,84.02
2022-09-25T05:47:00.098Z,84.17
2022-09-25T05:52:02.770Z,84.23
2022-09-25T05:57:05.520Z,83.96
2022-09-25T06:02:13.338Z,84.21
2022-09-25T06:07:15.956Z,83.95
2022-09-25T06:12:18.596Z,83.51
2022-09-25T06:17:21.319Z,83.16
2022-09-25T06:22:23.933Z,83.03
2022-09-25T06:27:27.598Z,83.09
2022-09-25T06:32:30.283Z,82.84
2022-09-25T06:37:33.093Z,82.75
2022-09-25T06:42:35.659Z,82.32
2022-09-25T06:47:38.410Z,82.00
2022-09-25T06:52:44.739Z,81.79
2022-09-25T06:57:47.333Z,81.48
2022-09-25T07:03:08.734Z,80.89
2022-09-25T07:08:14.013Z,79.84
2022-09-25T07:13:18.565Z,78.58
2022-09-25T07:18:22.407Z,77.69
2022-09-25T07:23:24.978Z,77.14
2022-09-25T07:28:27.657Z,76.71
2022-09-25T07:33:30.290Z,76.33
2022-09-25T07:38:34.450Z,76.20
2022-09-25T07:43:40.575Z,76.03
2022-09-25T07:48:43.144Z,75.70
2022-09-25T07:53:45.733Z,75.05
2022-09-25T07:58:48.441Z,75.11
2022-09-25T08:03:51.239Z,74.52
2022-09-25T08:08:53.883Z,74.16
2022-09-25T08:13:56.500Z,74.28
2022-09-25T08:18:59.122Z,74.42
2022-09-25T08:24:01.998Z,73.64
2022-09-25T08:29:05.019Z,73.48
2022-09-25T08:34:36.264Z,73.21
2022-09-25T08:39:33.020Z,72.98
2022-09-25T08:45:09.092Z,72.73
2022-09-25T08:50:19.678Z,72.37
2022-09-25T08:55:50.229Z,72.19
2022-09-25T09:00:54.653Z,70.64
2022-09-25T09:06:04.780Z,70.62
2022-09-25T09:11:17.282Z,69.93
2022-09-25T09:16:23.134Z,69.18
2022-09-25T09:21:33.682Z,68.71
2022-09-25T09:26:43.544Z,68.76
2022-09-25T09:32:01.188Z,68.13
2022-09-25T09:37:15.993Z,68.18
2022-09-25T09:42:36.853Z,68.02
2022-09-25T09:48:11.962Z,68.69
2022-09-25T09:53:42.412Z,68.82
2022-09-25T09:59:00.794Z,68.76
2022-09-25T10:04:22.705Z,68.31
2022-09-25T10:09:27.268Z,68.68
2022-09-25T10:14:40.124Z,69.08
2022-09-25T10:19:49.063Z,69.38
2022-09-25T10:24:55.441Z,68.56
2022-09-25T10:30:01.502Z,68.20
2022-09-25T10:35:06.220Z,68.64
2022-09-25T10:40:32.139Z,68.55
2022-09-25T10:45:36.402Z,68.92
2022-09-25T10:50:39.128Z,70.60
2022-09-25T10:55:51.183Z,71.02
2022-09-25T11:00:58.397Z,72.59
2022-09-25T11:06:20.887Z,74.01
2022-09-25T11:11:26.962Z,74.78
2022-09-25T11:16:46.464Z,75.82
2022-09-25T11:22:11.875Z,76.54
2022-09-25T11:27:22.611Z,77.14
2022-09-25T11:32:59.071Z,77.67
2022-09-25T11:38:40.418Z,78.54
2022-09-25T11:44:20.123Z,79.21
2022-09-25T11:49:30.445Z,80.13
2022-09-25T11:54:39.038Z,80.79
2022-09-25T11:59:52.263Z,81.16
2022-09-25T12:05:23.886Z,81.88
2022-09-25T12:10:36.282Z,82.43
2022-09-25T12:15:48.124Z,83.51
2022-09-25T12:20:58.141Z,84.00
2022-09-25T12:26:00.894Z,84.74
2022-09-25T12:31:10.790Z,85.47
2022-09-25T12:36:24.354Z,86.16
2022-09-25T12:41:46.944Z,86.56
2022-09-25T12:46:50.941Z,87.13
2022-09-25T12:51:58.604Z,87.31
2022-09-25T12:57:39.429Z,87.83
2022-09-25T13:03:19.434Z,88.34
2022-09-25T13:09:02.392Z,89.09
2022-09-25T13:14:11.309Z,89.78
2022-09-25T13:19:33.149Z,90.38
2022-09-25T13:24:58.122Z,90.79
2022-09-25T13:30:01.814Z,91.37
2022-09-25T13:35:07.191Z,91.92
2022-09-25T13:40:42.814Z,92.36
2022-09-25T13:45:45.506Z,92.88
2022-09-25T13:50:51.516Z,93.57
2022-09-25T13:55:57.445Z,93.99
2022-09-25T14:01:01.780Z,94.36
2022-09-25T14:06:07.646Z,94.58
2022-09-25T14:11:13.579Z,95.02
2022-09-25T14:16:40.942Z,95.33
2022-09-25T14:21:44.465Z,95.79
2022-09-25T14:26:48.494Z,95.95
2022-09-25T14:32:09.417Z,96.21
2022-09-25T14:37:52.881Z,96.43
2022-09-25T14:43:13.317Z,96.67
2022-09-25T14:48:25.143Z,96.87
2022-09-25T14:53:35.662Z,97.10
2022-09-25T14:58:44.760Z,97.57
2022-09-25T15:03:48.989Z,97.77
2022-09-25T15:08:53.027Z,98.02
2022-09-25T15:14:12.702Z,98.16
2022-09-25T15:19:37.708Z,98.46
2022-09-25T15:24:46.266Z,98.87
2022-09-25T15:29:49.738Z,98.91
2022-09-25T15:35:15.943Z,99.04
2022-09-25T15:40:25.816Z,99.30
2022-09-25T15:45:49.211Z,99.60
2022-09-25T15:50:53.468Z,99.83
2022-09-25T15:56:14.064Z,100.00
2022-09-25T16:01:43.036Z,100.00
2022-09-25T16:06:46.903Z,100.00
2022-09-25T16:11:49.777Z,100.00
2022-09-25T16:16:52.482Z,100.00
2022-09-25T16:21:55.244Z,100.00
2022-09-25T16:27:00.784Z,100.00
2022-09-25T16:32:06.772Z,100.00
2022-09-25T16:37:20.801Z,100.00
2022-09-25T16:42:31.428Z,100.00
2022-09-25T16:47:35.104Z,100.00
2022-09-25T16:52:43.212Z,100.00
2022-09-25T16:57:46.406Z,100.00
2022-09-25T17:02:49.312Z,100.00
2022-09-25T17:07:57.641Z,100.00
2022-09-25T17:13:02.167Z,100.00
2022-09-25T17:18:11.972Z,100.00
2022-09-25T17:23:15.018Z,100.00
2022-09-25T17:28:18.292Z,100.00
2022-09-25T17:33:22.685Z,100.00
2022-09-25T17:38:27.093Z,100.00
2022-09-25T17:43:29.781Z,100.00
2022-09-25T17:48:32.390Z,100.00
2022-09-25T17:53:35.639Z,100.00
2022-09-25T17:58:38.766Z,100.00
2022-09-25T18:03:41.382Z,100.00
2022-09-25T18:08:44.533Z,100.00
2022-09-25T18:13:47.720Z,100.00
2022-09-25T18:19:09.057Z,100.00
2022-09-25T18:24:11.738Z,100.00
2022-09-25T18:29:16.935Z,100.00
2022-09-25T18:34:21.865Z,100.00
2022-09-25T18:39:24.556Z,100.00
2022-09-25T18:44:27.625Z,100.00
2022-09-25T18:49:30.278Z,100.00
2022-09-25T18:54:32.851Z,100.00
2022-09-25T18:59:36.373Z,100.00
2022-09-25T19:04:39.183Z,100.00
2022-09-25T19:09:41.775Z,100.00
2022-09-25T19:14:45.236Z,100.00
2022-09-25T19:19:47.857Z,100.00
2022-09-25T19:24:52.609Z,100.00
2022-09-25T19:29:55.319Z,100.00
2022-09-25T19:34:59.666Z,100.00
2022-09-25T19:40:21.042Z,100.00
2022-09-25T19:45:23.661Z,100.00
2022-09-25T19:50:26.413Z,100.00
2022-09-25T19:55:29.629Z,100.00
2022-09-25T20:00:32.248Z,100.00
2022-09-25T20:05:39.326Z,100.00
2022-09-25T20:10:42.243Z,100.00
2022-09-25T20:15:48.115Z,100.00
2022-09-25T20:20:50.727Z,100.00
2022-09-25T20:25:53.330Z,100.00
2022-09-25T20:30:55.935Z,100.00
2022-09-25T20:36:03.148Z,100.00
2022-09-25T20:41:08.289Z,100.00
2022-09-25T20:46:12.979Z,100.00
2022-09-25T20:51:27.068Z,100.00
2022-09-25T20:56:31.418Z,100.00
2022-09-25T21:01:36.720Z,100.00
2022-09-25T21:06:41.577Z,100.00
2022-09-25T21:11:45.398Z,100.00
2022-09-25T21:16:49.014Z,100.00
2022-09-25T21:21:51.796Z,100.00
2022-09-25T21:26:54.471Z,100.00
2022-09-25T21:31:57.284Z,100.00
2022-09-25T21:37:00.102Z,100.00
2022-09-25T21:42:04.870Z,100.00
2022-09-25T21:47:07.473Z,100.00
2022-09-25T21:52:10.231Z,100.00
2022-09-25T21:57:13.457Z,100.00
2022-09-25T22:02:16.515Z,100.00
2022-09-25T22:07:19.120Z,100.00
2022-09-25T22:12:21.967Z,100.00
2022-09-25T22:17:24.611Z,100.00
2022-09-25T22:22:27.443Z,100.00
2022-09-25T22:27:30.175Z,100.00
2022-09-25T22:32:32.758Z,100.00
2022-09-25T22:37:36.534Z,100.00
2022-09-25T22:42:39.177Z,100.00
2022-09-25T22:47:41.799Z,100.00
2022-09-25T22:52:44.514Z,100.00
2022-09-25T22:57:47.257Z,100.00
2022-09-25T23:02:51.002Z,100.00
2022-09-25T23:07:53.569Z,100.00
2022-09-25T23:12:57.312Z,100.00
2022-09-25T23:17:59.920Z,100.00
2022-09-25T23:23:03.702Z,100.00
2022-09-25T23:28:06.773Z,100.00
2022-09-25T23:33:09.418Z,100.00
2022-09-25T23:38:12.448Z,100.00
2022-09-25T23:43:17.452Z,100.00
2022-09-25T23:48:21.020Z,100.00
2022-09-25T23:53:23.730Z,100.00
2022-09-25T23:58:28.431Z,100.00
